< Typhoon 200607 2006 Season Typhoon 200609 >
Typhoon 200608 (SAOMAI)
General InformationTrack Information on Google MapsDetailed Wind InformationAccess Analytics MapList of All Images || NewsDisaster Info.WeblogTrackbackTyphoon FrontResourceGoogle EarthGE AnimationAtom FeedGeoJSON
Detalied Best Track (Time Zone = UTC)
Year Month Day Hour Lat. Long. Pressure (hPa) Wind (kt) Class Image Chart
2006 8 5 00 10.0 148.5 1004 0 2 Image Chart
2006 8 5 06 10.9 147.4 1000 0 2 Image Chart
2006 8 5 12 11.7 146.5 998 35 3 Image Chart
2006 8 5 18 12.8 145.5 996 40 3 Image Chart
2006 8 6 00 14.0 144.2 996 40 3 Image Chart
2006 8 6 06 15.2 143.1 992 45 3 Image Chart
2006 8 6 12 16.4 141.6 992 45 3 Image Chart
2006 8 6 18 17.1 140.5 985 50 4 Image Chart
2006 8 7 00 17.9 139.5 975 60 4 Image Chart
2006 8 7 06 18.8 138.2 970 70 5 Image Chart
2006 8 7 12 19.5 136.7 970 75 5 Image Chart
2006 8 7 18 20.3 135.4 965 75 5 Image Chart
2006 8 8 00 20.9 134.0 960 80 5 Image Chart
2006 8 8 06 21.6 132.9 960 80 5 Image Chart
2006 8 8 12 22.4 131.4 955 85 5 Image Chart
2006 8 8 15 22.7 130.8 955 85 5 Image Chart
2006 8 8 18 23.1 130.1 950 90 5 Image Chart
2006 8 8 21 23.6 129.3 945 90 5 Image Chart
2006 8 9 00 23.9 128.4 940 95 5 Image Chart
2006 8 9 03 24.3 127.6 935 95 5 Image Chart
2006 8 9 06 24.7 126.9 930 100 5 Image Chart
2006 8 9 09 25.1 126.1 930 100 5 Image Chart
2006 8 9 12 25.4 125.3 925 105 5 Image Chart
2006 8 9 15 25.7 124.4 925 105 5 Image Chart
2006 8 9 18 26.0 123.7 925 105 5 Image Chart
2006 8 9 21 26.3 123.0 930 105 5 Image Chart
2006 8 10 00 26.5 122.5 930 100 5 Image Chart
2006 8 10 06 27.0 121.2 935 100 5 Image Chart
2006 8 10 12 27.2 120.0 950 90 5 Image Chart
2006 8 10 18 27.4 118.7 980 50 4 Image Chart
2006 8 11 00 28.2 117.3 996 0 2 Image Chart
2006 8 11 06 28.6 116.1 1000 0 2 Image Chart
2006 8 11 12 29.5 114.7 1002 0 2 Image Chart
2006 8 11 18 30.0 113.1 1002 0 2 Image Chart
Japan Meteorological Agency Best Track Data | Correction Date : 2006-11-14
< Typhoon 200607 2006 Season Typhoon 200609 >

Help